Aérodrome :
LOGIN :

S'inscrire | Disclaimer

   EN    FR    IT 

 










Légende :    VFR   VFR Marginal   IFR   IFR Intensif   IFR Très Intensif
Visi : 
Plafond : 
>= 8 km
>= 3000ft
5 à 8 km
1000 à 3000 ft
1500m à 5 km
500 à 1000 ft
800 à 1500m
200 à 500 ft
< 800m
< 200 ft
Symboles :   Orages  Brouillard  Fortes neiges  Fortes précipitations  Vent > 20 kt
SIGMETs :   Divers  Orages  Givrage  Turbulence  Onde Orograph.  Cendres Volcan.






- Altitude de l'aérodrome : 1674 ft
- Code IATA : BRN


LSZB - Bern Belp

DERNIER METAR :
  • 060450Z 17002KT 2000 R14/0800U BR SCT002 BKN009 M01/M02 Q1023 NOSIG

METARs EXPIRÉS :
  • 060420Z AUTO 17005KT 2400 R14/1000U BR FEW002 M02/M02 Q1023 REFZDZ
  • 060350Z AUTO VRB01KT 3000 BR SCT002 M01/M02 Q1023 REFZDZ
  • 060320Z AUTO 17003KT 2800 R14/0900D FZFG FEW001 M02/M02 Q1023
  • 060250Z AUTO VRB03KT 2700 R14/0650U FZFG SCT001 M01/M02 Q1023
  • 060220Z AUTO 18004KT 2200 R14/1200U BR SCT001 M01/M02 Q1023 REFZDZ

Prévision TAF périmée.
ATIS : +41 22 417 40 76



MET'MAP, la Météo Aéronautique d'un coup d'oeil ! - Copyright ORBIFLY Décembre 2007 - Disclaimer

ORBIFLY MET'MAP TEAM :

Programmation & Développement : Alexandra Zaïnal
Sur une idée originale de : Baudouin d'Aumeries
Assistance à la programmation : Marc-Olivier Méhu
Soutien technique & logistique : Manuel Goepfert

Contact : metmap@orbifly.com




SOURCES & CREDITS :

   NOAA